Time;durP1;ratioP1;P1;durP2;ratioP2;P2;SDS_P1;SDS_P2;PMS_P1;PMS_P2;Temp;Humidity;BMP_temperature;BMP_pressure;BME280_temperature;BME280_humidity;BME280_pressure;Samples;Min_cycle;Max_cycle;Signal;HPM_P1;HPM_P2
2021/10/04 00:00:20;;;;;;;2.40;1.30;;;11.50;99.90;;;;;;5010719;28;20176;-71
2021/10/04 00:02:45;;;;;;;1.83;1.43;;;11.50;99.90;;;;;;4994168;28;20222;-71
2021/10/04 00:05:11;;;;;;;3.33;1.63;;;11.40;99.90;;;;;;5010958;28;20654;-71
2021/10/04 00:07:37;;;;;;;2.53;1.70;;;11.40;99.90;;;;;;4994155;28;20714;-71
2021/10/04 00:10:07;;;;;;;6.03;1.80;;;11.40;99.90;;;;;;4977745;28;20184;-71
2021/10/04 00:12:32;;;;;;;2.27;1.37;;;11.40;99.90;;;;;;4994017;28;20259;-71
2021/10/04 00:14:58;;;;;;;4.50;1.60;;;11.40;99.90;;;;;;5010482;28;20173;-71
2021/10/04 00:17:23;;;;;;;6.07;1.50;;;11.40;99.90;;;;;;4995075;28;20180;-71
2021/10/04 00:19:49;;;;;;;4.03;1.60;;;11.40;99.90;;;;;;4993762;28;20541;-71
2021/10/04 00:22:14;;;;;;;5.70;1.50;;;11.40;99.90;;;;;;5009195;28;20673;-71
2021/10/04 00:24:40;;;;;;;2.73;1.57;;;11.40;99.90;;;;;;5010378;28;20223;-71
2021/10/04 00:27:06;;;;;;;4.30;1.43;;;11.40;99.90;;;;;;4993977;28;20176;-71
2021/10/04 00:29:31;;;;;;;3.07;1.30;;;11.40;99.90;;;;;;5009910;28;20271;-71
2021/10/04 00:31:57;;;;;;;2.77;1.30;;;11.40;99.90;;;;;;4993700;28;20242;-71
2021/10/04 00:34:22;;;;;;;4.17;1.50;;;11.40;99.90;;;;;;4993677;28;20203;-71
2021/10/04 00:36:48;;;;;;;3.80;1.40;;;11.40;99.90;;;;;;5010011;28;20219;-71
2021/10/04 00:39:14;;;;;;;2.37;1.20;;;11.40;99.90;;;;;;5009594;28;20186;-71
2021/10/04 00:41:41;;;;;;;1.90;1.20;;;11.30;99.90;;;;;;5009681;28;20639;-71
2021/10/04 00:44:07;;;;;;;3.20;1.10;;;11.30;99.90;;;;;;4993065;28;20208;-71
2021/10/04 00:46:32;;;;;;;2.47;1.30;;;11.30;99.90;;;;;;4993657;28;20238;-71
2021/10/04 00:48:58;;;;;;;2.90;1.30;;;11.30;99.90;;;;;;4993511;28;20184;-71
2021/10/04 00:51:23;;;;;;;1.83;1.20;;;11.30;99.90;;;;;;4994401;28;20283;-71
2021/10/04 00:53:50;;;;;;;3.33;1.40;;;11.40;99.90;;;;;;5009761;28;20254;-71
2021/10/04 00:56:16;;;;;;;2.90;1.20;;;11.40;99.90;;;;;;5009646;28;20203;-71
2021/10/04 00:58:42;;;;;;;2.63;1.10;;;11.40;99.90;;;;;;5009396;28;20181;-71
2021/10/04 01:01:07;;;;;;;4.40;1.07;;;11.40;99.90;;;;;;4993455;28;20180;-71
2021/10/04 01:03:33;;;;;;;2.37;1.20;;;11.40;99.90;;;;;;4992923;28;20211;-71
2021/10/04 01:05:58;;;;;;;1.70;1.00;;;11.40;99.90;;;;;;5009333;28;20172;-71
2021/10/04 01:08:24;;;;;;;2.03;0.90;;;11.40;99.90;;;;;;4992902;28;20175;-71
2021/10/04 01:10:49;;;;;;;3.33;1.10;;;11.40;99.90;;;;;;4993033;28;20184;-71
2021/10/04 01:13:16;;;;;;;4.17;1.20;;;11.40;99.90;;;;;;4976722;28;20568;-71
2021/10/04 01:15:41;;;;;;;2.93;1.10;;;11.30;99.90;;;;;;4976935;28;20675;-71
2021/10/04 01:18:07;;;;;;;1.90;1.10;;;11.30;99.90;;;;;;4992722;28;20177;-71
2021/10/04 01:20:33;;;;;;;1.40;0.80;;;11.30;99.90;;;;;;5009126;28;20187;-71
2021/10/04 01:22:58;;;;;;;1.93;0.90;;;11.30;99.90;;;;;;5008992;28;20216;-71
2021/10/04 01:25:24;;;;;;;1.73;0.97;;;11.30;99.90;;;;;;4992918;28;20263;-71
2021/10/04 01:27:50;;;;;;;3.03;1.00;;;11.30;99.90;;;;;;5008689;28;20183;-71
2021/10/04 01:30:17;;;;;;;3.93;1.20;;;11.30;99.90;;;;;;4976619;28;20184;-71
2021/10/04 01:32:44;;;;;;;0.97;0.80;;;11.30;99.90;;;;;;4992444;28;20213;-71
2021/10/04 01:35:10;;;;;;;2.10;0.93;;;11.30;99.90;;;;;;5008514;28;20187;-71
2021/10/04 01:37:36;;;;;;;1.63;0.90;;;11.30;99.90;;;;;;4992413;28;20171;-71
2021/10/04 01:40:02;;;;;;;3.70;0.80;;;11.30;99.90;;;;;;5008821;28;20212;-71
2021/10/04 01:42:28;;;;;;;1.37;0.80;;;11.30;99.90;;;;;;4992407;28;20615;-71
2021/10/04 01:44:53;;;;;;;1.27;0.90;;;11.30;99.90;;;;;;5008597;28;20200;-71
2021/10/04 01:47:19;;;;;;;1.23;1.00;;;11.20;99.90;;;;;;5009082;28;20358;-71
2021/10/04 01:49:44;;;;;;;1.43;0.80;;;11.20;99.90;;;;;;5008429;28;20179;-71
2021/10/04 01:52:11;;;;;;;2.07;1.10;;;11.20;99.90;;;;;;5008636;28;20175;-71
2021/10/04 01:54:37;;;;;;;2.83;1.00;;;11.20;99.90;;;;;;4992245;28;20655;-71
2021/10/04 01:57:03;;;;;;;3.20;1.03;;;11.20;99.90;;;;;;4993237;28;20244;-71
2021/10/04 01:59:29;;;;;;;1.53;1.07;;;11.20;99.90;;;;;;5008420;28;20273;-71
2021/10/04 02:01:54;;;;;;;2.43;0.87;;;11.30;99.90;;;;;;5008400;28;20186;-71
2021/10/04 02:04:20;;;;;;;4.03;1.23;;;11.20;99.90;;;;;;5008427;28;20196;-71
2021/10/04 02:06:49;;;;;;;2.90;1.10;;;11.20;99.90;;;;;;5008649;28;20173;-71
2021/10/04 02:09:18;;;;;;;6.17;1.27;;;11.30;99.90;;;;;;5007528;28;20180;-71
2021/10/04 02:11:44;;;;;;;2.93;1.30;;;11.30;99.90;;;;;;4991895;28;20187;-71
2021/10/04 02:14:10;;;;;;;1.63;1.10;;;11.30;99.90;;;;;;4991866;28;20465;-71
2021/10/04 02:16:35;;;;;;;2.83;1.10;;;11.30;99.90;;;;;;5008019;28;20177;-71
2021/10/04 02:19:01;;;;;;;3.60;1.20;;;11.20;99.90;;;;;;4991583;28;20180;-71
2021/10/04 02:21:26;;;;;;;2.50;1.40;;;11.20;99.90;;;;;;5007335;28;20192;-71
2021/10/04 02:23:52;;;;;;;2.90;1.10;;;11.20;99.90;;;;;;5007747;28;20219;-71
2021/10/04 02:26:17;;;;;;;1.90;1.10;;;11.10;99.90;;;;;;4992589;28;20180;-71
2021/10/04 02:28:43;;;;;;;3.37;1.50;;;11.10;99.90;;;;;;4992953;28;20179;-71
2021/10/04 02:31:08;;;;;;;2.27;1.33;;;11.10;99.90;;;;;;4991918;28;20196;-71
2021/10/04 02:33:34;;;;;;;1.80;1.03;;;11.00;99.90;;;;;;4975635;28;20211;-71
2021/10/04 02:36:00;;;;;;;3.50;1.10;;;11.00;99.90;;;;;;4993331;28;20672;-71
2021/10/04 02:38:25;;;;;;;2.30;1.40;;;11.00;99.90;;;;;;5008124;28;20183;-71
2021/10/04 02:40:51;;;;;;;3.07;1.03;;;11.00;99.90;;;;;;4991922;28;20181;-71
2021/10/04 02:43:18;;;;;;;3.33;1.30;;;11.00;99.90;;;;;;4991659;28;20204;-72
2021/10/04 02:45:53;;;;;;;2.67;1.20;;;10.90;99.90;;;;;;5010582;28;20173;-71
2021/10/04 02:48:19;;;;;;;3.87;1.30;;;10.90;99.90;;;;;;4995488;28;20262;-71
2021/10/04 02:50:45;;;;;;;3.30;1.33;;;11.00;99.90;;;;;;5012356;28;20685;-71
2021/10/04 02:53:10;;;;;;;5.20;1.60;;;11.00;99.90;;;;;;4994794;28;20195;-71
2021/10/04 02:55:36;;;;;;;3.00;1.13;;;11.10;99.90;;;;;;5012173;28;20212;-71
2021/10/04 02:58:02;;;;;;;4.37;1.30;;;11.10;99.90;;;;;;4979246;28;20534;-71
2021/10/04 03:00:27;;;;;;;4.33;1.20;;;11.10;99.90;;;;;;4995321;28;20196;-71
2021/10/04 03:02:53;;;;;;;3.20;1.30;;;11.10;99.90;;;;;;4996400;28;20687;-71
2021/10/04 03:05:18;;;;;;;1.70;1.27;;;11.20;99.90;;;;;;4995477;28;20180;-71
2021/10/04 03:07:44;;;;;;;4.23;1.40;;;11.10;99.90;;;;;;4995220;28;20553;-71
2021/10/04 03:10:09;;;;;;;2.03;1.23;;;11.10;99.90;;;;;;4995115;28;20632;-71
2021/10/04 03:12:35;;;;;;;3.07;1.43;;;11.10;99.90;;;;;;4995178;28;20564;-71
2021/10/04 03:15:01;;;;;;;2.50;1.30;;;11.10;99.90;;;;;;5011329;28;20267;-71
2021/10/04 03:17:26;;;;;;;2.77;1.10;;;11.10;99.90;;;;;;4995243;28;20169;-71
2021/10/04 03:19:52;;;;;;;5.00;1.57;;;11.10;99.90;;;;;;4994907;28;20671;-71
2021/10/04 03:22:17;;;;;;;4.67;1.43;;;11.00;99.90;;;;;;4995382;28;20702;-71
2021/10/04 03:24:43;;;;;;;2.43;1.30;;;11.00;99.90;;;;;;5010554;28;20211;-71
2021/10/04 03:27:08;;;;;;;3.63;1.33;;;11.00;99.90;;;;;;5010582;28;20259;-72
2021/10/04 03:29:34;;;;;;;2.90;1.30;;;11.00;99.90;;;;;;4994042;28;20233;-71
2021/10/04 03:32:00;;;;;;;2.63;1.30;;;11.10;99.90;;;;;;5010393;28;20177;-71
2021/10/04 03:34:25;;;;;;;3.70;1.30;;;11.10;99.90;;;;;;5010473;28;20664;-71
2021/10/04 03:36:51;;;;;;;3.60;1.40;;;11.10;99.90;;;;;;4995249;28;20644;-71
2021/10/04 03:39:16;;;;;;;3.43;1.20;;;11.10;99.90;;;;;;5010173;28;20179;-71
2021/10/04 03:41:42;;;;;;;3.47;1.40;;;11.10;99.90;;;;;;4993965;28;20185;-71
2021/10/04 03:44:07;;;;;;;2.37;1.10;;;11.10;99.90;;;;;;4993655;28;20566;-71
2021/10/04 03:46:33;;;;;;;3.47;1.47;;;11.10;99.90;;;;;;4995031;28;20607;-71
2021/10/04 03:48:59;;;;;;;4.43;1.43;;;11.10;99.90;;;;;;4993513;28;20209;-71
2021/10/04 03:51:24;;;;;;;1.53;1.20;;;11.00;99.90;;;;;;4993468;28;20184;-71
2021/10/04 03:53:50;;;;;;;2.67;1.23;;;11.00;99.90;;;;;;5009991;28;20271;-71
2021/10/04 03:56:15;;;;;;;2.13;1.20;;;11.00;99.90;;;;;;5009154;28;20702;-71
2021/10/04 03:58:41;;;;;;;1.93;0.97;;;11.10;99.90;;;;;;5009770;28;20185;-71
2021/10/04 04:01:06;;;;;;;4.60;1.00;;;11.00;99.90;;;;;;4994830;28;20183;-71
2021/10/04 04:03:32;;;;;;;1.83;0.90;;;11.00;99.90;;;;;;4977118;28;20255;-72
2021/10/04 04:05:58;;;;;;;2.47;1.30;;;11.00;99.90;;;;;;4993534;28;20323;-71
2021/10/04 04:08:23;;;;;;;3.03;1.20;;;11.00;99.90;;;;;;4993690;28;20172;-71
2021/10/04 04:10:49;;;;;;;2.47;0.93;;;11.00;99.90;;;;;;5009865;28;20175;-71
2021/10/04 04:13:14;;;;;;;3.20;1.20;;;11.00;99.90;;;;;;4993398;28;20297;-71
2021/10/04 04:15:40;;;;;;;3.10;1.27;;;11.00;99.90;;;;;;4993495;28;20190;-71
2021/10/04 04:18:05;;;;;;;2.77;1.13;;;11.00;99.90;;;;;;4993196;28;20706;-71
2021/10/04 04:20:31;;;;;;;5.00;1.20;;;11.10;99.90;;;;;;5009723;28;20184;-71
2021/10/04 04:22:56;;;;;;;3.60;1.30;;;11.10;99.90;;;;;;5009426;28;20285;-71
2021/10/04 04:25:22;;;;;;;2.77;1.00;;;11.10;99.90;;;;;;4994599;28;20188;-71
2021/10/04 04:27:48;;;;;;;2.73;1.00;;;11.10;99.90;;;;;;5009426;28;20192;-71
2021/10/04 04:30:14;;;;;;;3.90;0.90;;;11.10;99.90;;;;;;4993134;28;20216;-71
2021/10/04 04:32:39;;;;;;;2.47;1.10;;;11.10;99.90;;;;;;5009250;28;20200;-71
2021/10/04 04:35:06;;;;;;;2.20;1.10;;;11.10;99.90;;;;;;4992970;28;20192;-71
2021/10/04 04:37:35;;;;;;;2.80;0.80;;;11.10;99.90;;;;;;4994293;28;20188;-71
2021/10/04 04:40:01;;;;;;;3.00;1.27;;;11.20;99.90;;;;;;4992672;28;20230;-71
2021/10/04 04:42:26;;;;;;;3.07;1.00;;;11.20;99.90;;;;;;4992442;28;20219;-71
2021/10/04 04:44:53;;;;;;;0.80;0.80;;;11.20;99.90;;;;;;4992203;28;20667;-71
2021/10/04 04:47:18;;;;;;;2.37;1.17;;;11.20;99.90;;;;;;4993119;28;20181;-71
2021/10/04 04:49:44;;;;;;;1.90;1.00;;;11.20;99.90;;;;;;5008931;28;20172;-71
2021/10/04 04:52:09;;;;;;;0.93;0.80;;;11.10;99.90;;;;;;5008401;28;20184;-74
2021/10/04 04:54:35;;;;;;;3.47;0.80;;;11.20;99.90;;;;;;5009069;28;20204;-75
2021/10/04 04:57:01;;;;;;;3.20;1.00;;;11.10;99.90;;;;;;4992650;28;20179;-73
2021/10/04 04:59:27;;;;;;;2.70;1.10;;;11.20;99.90;;;;;;4992559;28;20636;-73
2021/10/04 05:01:52;;;;;;;1.10;0.90;;;11.10;99.90;;;;;;4991871;28;20194;-73
2021/10/04 05:04:18;;;;;;;3.60;1.10;;;11.10;99.90;;;;;;4992339;28;20219;-73
2021/10/04 05:06:43;;;;;;;2.27;1.03;;;11.10;99.90;;;;;;4992381;28;20185;-74
2021/10/04 05:09:10;;;;;;;1.00;0.83;;;11.10;99.90;;;;;;4992147;28;20173;-73
2021/10/04 05:11:35;;;;;;;2.87;1.00;;;11.10;99.90;;;;;;5008522;28;20175;-74
2021/10/04 05:14:01;;;;;;;4.10;1.07;;;11.10;99.90;;;;;;4991765;28;20204;-73
2021/10/04 05:16:26;;;;;;;3.10;0.90;;;11.10;99.90;;;;;;4992559;28;20272;-73
2021/10/04 05:18:52;;;;;;;2.50;1.00;;;11.10;99.90;;;;;;5007402;28;20207;-73
2021/10/04 05:21:18;;;;;;;2.07;0.90;;;11.10;99.90;;;;;;5008276;28;20176;-73
2021/10/04 05:23:43;;;;;;;2.13;0.90;;;11.20;99.90;;;;;;4991892;28;20298;-73
2021/10/04 05:26:09;;;;;;;2.50;1.30;;;11.20;99.90;;;;;;5003303;28;20193;-74
2021/10/04 05:28:34;;;;;;;2.47;1.03;;;11.20;99.90;;;;;;5004104;28;20669;-74
2021/10/04 05:31:00;;;;;;;2.93;1.23;;;11.20;99.90;;;;;;4959701;28;20644;-74
2021/10/04 05:33:25;;;;;;;2.23;1.00;;;11.20;99.90;;;;;;4992002;28;20207;-74
2021/10/04 05:35:51;;;;;;;2.00;0.90;;;11.20;99.90;;;;;;4993091;28;20180;-74
2021/10/04 05:38:16;;;;;;;2.17;1.00;;;11.30;99.90;;;;;;4975597;28;20212;-74
2021/10/04 05:40:43;;;;;;;2.67;1.00;;;11.20;99.90;;;;;;4991875;28;20186;-74
2021/10/04 05:43:08;;;;;;;1.90;0.90;;;11.30;99.90;;;;;;4992748;28;20216;-74
2021/10/04 05:45:34;;;;;;;1.53;0.80;;;11.30;99.90;;;;;;4975597;28;20618;-74
2021/10/04 05:47:59;;;;;;;2.83;1.00;;;11.30;99.90;;;;;;5004448;28;20596;-75
2021/10/04 05:50:25;;;;;;;1.27;1.13;;;11.30;99.90;;;;;;5006800;28;20602;-74
2021/10/04 05:52:51;;;;;;;1.87;1.00;;;11.30;99.90;;;;;;4981491;28;20192;-75
2021/10/04 05:55:17;;;;;;;3.20;1.10;;;11.40;99.90;;;;;;4982509;28;20252;-75
2021/10/04 05:57:44;;;;;;;3.30;1.13;;;11.40;99.90;;;;;;4971950;28;20622;-75
2021/10/04 06:00:10;;;;;;;3.43;1.00;;;11.30;99.90;;;;;;4972097;28;20215;-71
2021/10/04 06:02:35;;;;;;;2.17;0.83;;;11.40;99.90;;;;;;4973245;28;20224;-70
2021/10/04 06:05:02;;;;;;;2.97;1.10;;;11.40;99.90;;;;;;4973272;28;20247;-70
2021/10/04 06:07:31;;;;;;;1.30;0.97;;;11.40;99.90;;;;;;4974771;28;20645;-78
2021/10/04 06:09:56;;;;;;;2.00;0.90;;;11.40;99.90;;;;;;4975854;28;20263;-70
2021/10/04 06:12:26;;;;;;;2.10;0.90;;;11.50;99.90;;;;;;4991531;28;20859;-69
2021/10/04 06:14:53;;;;;;;2.47;0.87;;;11.50;99.90;;;;;;4976570;28;20181;-71
2021/10/04 06:17:19;;;;;;;1.83;0.80;;;11.50;99.90;;;;;;4991758;28;20268;-70
2021/10/04 06:19:45;;;;;;;2.37;0.80;;;11.60;99.90;;;;;;4990729;28;20180;-70
2021/10/04 06:22:11;;;;;;;1.83;0.90;;;11.60;99.90;;;;;;4992400;28;20176;-70
2021/10/04 06:24:36;;;;;;;1.67;1.00;;;11.60;99.90;;;;;;4974934;28;20294;-75
2021/10/04 06:27:02;;;;;;;4.37;1.30;;;11.60;99.90;;;;;;4975996;28;20211;-75
2021/10/04 06:29:27;;;;;;;2.70;0.90;;;11.70;99.90;;;;;;4974890;28;20597;-75
2021/10/04 06:31:53;;;;;;;2.77;1.17;;;11.80;99.90;;;;;;4992851;28;20173;-74
2021/10/04 06:34:18;;;;;;;3.03;0.93;;;11.70;99.90;;;;;;4992217;28;20252;-75
2021/10/04 06:36:44;;;;;;;2.27;1.10;;;11.80;99.90;;;;;;4992282;28;20691;-74
2021/10/04 06:39:09;;;;;;;2.13;1.00;;;11.80;99.90;;;;;;4991634;28;20671;-75
2021/10/04 06:41:40;;;;;;;2.90;1.23;;;11.80;99.90;;;;;;4992462;28;20540;-75
2021/10/04 06:44:06;;;;;;;4.87;1.20;;;11.80;99.90;;;;;;4976695;28;20688;-75
2021/10/04 06:46:32;;;;;;;2.10;1.00;;;11.80;99.90;;;;;;4975257;28;20176;-75
2021/10/04 06:48:59;;;;;;;2.70;0.90;;;11.90;99.90;;;;;;4990972;28;20700;-75
2021/10/04 06:51:24;;;;;;;1.73;1.10;;;11.90;99.90;;;;;;4991125;28;20203;-74
2021/10/04 06:53:50;;;;;;;3.47;1.33;;;11.90;99.90;;;;;;4991302;28;20200;-75
2021/10/04 06:56:16;;;;;;;1.83;1.00;;;11.90;99.90;;;;;;4991615;28;20657;-74
2021/10/04 06:58:41;;;;;;;4.80;1.23;;;11.90;99.90;;;;;;4991065;28;20666;-74
2021/10/04 07:01:07;;;;;;;5.87;1.23;;;11.90;99.90;;;;;;4974907;28;20185;-74
2021/10/04 07:03:32;;;;;;;3.10;1.00;;;11.90;99.90;;;;;;4990756;28;20220;-74
2021/10/04 07:05:59;;;;;;;2.60;1.10;;;11.90;99.90;;;;;;4991016;28;20199;-73
2021/10/04 07:08:24;;;;;;;2.67;1.50;;;11.90;99.90;;;;;;4990953;28;20260;-76
2021/10/04 07:10:50;;;;;;;3.07;0.97;;;12.00;99.90;;;;;;4991143;28;20607;-74
2021/10/04 07:13:16;;;;;;;2.00;0.93;;;12.00;99.90;;;;;;4992110;28;20278;-76
2021/10/04 07:15:41;;;;;;;3.20;1.00;;;12.10;99.90;;;;;;4974762;28;20188;-71
2021/10/04 07:18:07;;;;;;;2.30;0.97;;;12.10;99.90;;;;;;4990587;28;20263;-71
2021/10/04 07:20:32;;;;;;;2.10;1.00;;;12.20;99.90;;;;;;4994055;28;20193;-74
2021/10/04 07:22:59;;;;;;;6.23;1.20;;;12.20;99.90;;;;;;4971098;28;20212;-74
2021/10/04 07:25:25;;;;;;;3.87;1.30;;;12.30;99.90;;;;;;4971561;28;20165;-70
2021/10/04 07:27:51;;;;;;;2.40;1.30;;;12.40;99.90;;;;;;4971003;28;20173;-70
2021/10/04 07:30:16;;;;;;;2.40;1.20;;;12.40;99.90;;;;;;4971331;28;20601;-70
2021/10/04 07:32:42;;;;;;;3.63;0.97;;;12.40;99.90;;;;;;4974413;28;20193;-70
2021/10/04 07:35:08;;;;;;;3.40;1.20;;;12.50;99.90;;;;;;4974871;28;20177;-70
2021/10/04 07:37:34;;;;;;;2.97;1.10;;;12.50;99.90;;;;;;4974213;28;20181;-70
2021/10/04 07:40:02;;;;;;;3.63;1.30;;;12.60;99.90;;;;;;4974464;28;20216;-70
2021/10/04 07:42:27;;;;;;;3.07;1.00;;;12.60;99.90;;;;;;4974486;28;20193;-70
2021/10/04 07:44:53;;;;;;;1.60;0.90;;;12.60;99.90;;;;;;4974348;28;20209;-70
2021/10/04 07:47:18;;;;;;;3.33;1.20;;;12.70;99.90;;;;;;4957991;28;20228;-70
2021/10/04 07:49:44;;;;;;;1.53;1.27;;;12.70;99.90;;;;;;4974322;28;20693;-70
2021/10/04 07:52:09;;;;;;;1.73;0.93;;;12.80;99.90;;;;;;4974099;28;20177;-70
2021/10/04 07:54:35;;;;;;;2.53;1.30;;;12.80;99.90;;;;;;4974226;28;20177;-70
2021/10/04 07:57:01;;;;;;;1.10;1.00;;;12.80;99.90;;;;;;4958066;28;20188;-70
2021/10/04 07:59:26;;;;;;;3.30;1.20;;;12.80;99.90;;;;;;4973859;28;20201;-70
2021/10/04 08:01:52;;;;;;;5.10;1.33;;;12.90;99.90;;;;;;4974169;28;20264;-70
2021/10/04 08:04:17;;;;;;;2.07;0.90;;;12.90;99.90;;;;;;4974111;28;20288;-70
2021/10/04 08:06:43;;;;;;;2.20;1.10;;;12.90;99.90;;;;;;4973861;28;20259;-70
2021/10/04 08:09:08;;;;;;;2.83;1.10;;;13.00;99.90;;;;;;4973668;28;20239;-70
2021/10/04 08:11:34;;;;;;;3.13;1.00;;;13.00;99.90;;;;;;4975125;28;20550;-70
2021/10/04 08:14:00;;;;;;;1.80;1.00;;;13.10;99.90;;;;;;4974027;28;20215;-70
2021/10/04 08:16:26;;;;;;;3.43;1.07;;;13.10;99.90;;;;;;4957806;28;20181;-70
2021/10/04 08:18:51;;;;;;;3.23;1.00;;;13.10;99.90;;;;;;4957637;28;20695;-70
2021/10/04 08:21:17;;;;;;;2.17;1.10;;;13.20;99.90;;;;;;4973529;28;20186;-70
2021/10/04 08:23:44;;;;;;;2.30;0.87;;;13.20;99.90;;;;;;4973600;28;20309;-70
2021/10/04 08:26:09;;;;;;;2.90;1.10;;;13.30;99.90;;;;;;4973847;28;20596;-70
2021/10/04 08:28:35;;;;;;;2.60;1.10;;;13.40;99.90;;;;;;4973592;28;20212;-70
2021/10/04 08:31:00;;;;;;;7.30;1.10;;;13.40;99.90;;;;;;4973559;28;20185;-71
2021/10/04 08:33:26;;;;;;;3.47;1.23;;;13.40;99.90;;;;;;4961915;28;20204;-70
2021/10/04 08:35:51;;;;;;;3.90;1.40;;;13.40;99.90;;;;;;4989218;28;20212;-70
2021/10/04 08:38:17;;;;;;;2.97;1.30;;;13.50;99.90;;;;;;4989496;28;20248;-70
2021/10/04 08:40:42;;;;;;;4.67;0.73;;;13.60;99.90;;;;;;4974749;28;20204;-71
2021/10/04 08:43:08;;;;;;;3.87;1.10;;;13.70;99.90;;;;;;4981053;28;20224;-70
2021/10/04 08:45:33;;;;;;;3.57;1.20;;;13.80;99.90;;;;;;4973357;28;20169;-71
2021/10/04 08:47:59;;;;;;;3.13;0.90;;;14.00;99.90;;;;;;4988248;28;20177;-70
2021/10/04 08:50:31;;;;;;;2.37;0.97;;;14.10;99.90;;;;;;5008948;28;20176;-71
2021/10/04 08:52:59;;;;;;;7.27;3.40;;;14.10;99.90;;;;;;4992459;28;20271;-71
2021/10/04 08:55:25;;;;;;;5.30;2.13;;;14.20;99.90;;;;;;4992637;28;20264;-71
2021/10/04 08:57:50;;;;;;;4.73;1.70;;;14.30;99.90;;;;;;4992355;28;20200;-71
2021/10/04 09:00:16;;;;;;;4.60;1.97;;;14.30;99.90;;;;;;5008816;28;20196;-71
2021/10/04 09:02:42;;;;;;;3.90;1.60;;;14.30;99.90;;;;;;5008494;28;20625;-70
2021/10/04 09:05:34;;;;;;;5.10;1.50;;;14.30;99.90;;;;;;5008585;28;20692;-72
2021/10/04 09:08:05;;;;;;;3.53;1.17;;;14.30;99.90;;;;;;4990379;28;20211;-72
2021/10/04 09:10:32;;;;;;;1.93;1.07;;;14.30;99.90;;;;;;4992426;28;20591;-71
2021/10/04 09:12:59;;;;;;;2.63;1.10;;;14.30;99.90;;;;;;4976340;28;20219;-71
2021/10/04 09:15:36;;;;;;;4.73;1.17;;;14.20;99.90;;;;;;4992050;28;20168;-72
2021/10/04 09:18:08;;;;;;;3.20;1.00;;;14.20;99.90;;;;;;4992069;28;20175;-73
2021/10/04 09:21:00;;;;;;;4.30;1.20;;;14.20;99.90;;;;;;4993515;28;20192;-73
2021/10/04 09:23:28;;;;;;;3.07;0.90;;;14.40;99.90;;;;;;4992255;28;20223;-73
2021/10/04 09:25:54;;;;;;;3.17;1.00;;;14.50;99.90;;;;;;4993066;28;20181;-73
2021/10/04 09:28:30;;;;;;;4.07;0.97;;;14.50;99.90;;;;;;4991658;28;20259;-72
2021/10/04 09:31:21;;;;;;;4.00;1.30;;;14.60;99.90;;;;;;4960432;28;20710;-72
2021/10/04 09:34:05;;;;;;;2.73;0.87;;;14.70;99.90;;;;;;4997019;28;20212;-73
2021/10/04 09:36:32;;;;;;;3.93;1.20;;;14.80;99.90;;;;;;4992943;28;20191;-72
2021/10/04 09:39:16;;;;;;;4.23;1.10;;;15.00;99.90;;;;;;4991670;28;20172;-72
2021/10/04 09:41:54;;;;;;;2.27;0.80;;;15.20;99.90;;;;;;4992800;28;20176;-72
2021/10/04 09:44:19;;;;;;;5.00;0.80;;;15.20;99.90;;;;;;4992288;28;20206;-71
2021/10/04 09:46:45;;;;;;;4.30;0.90;;;15.30;99.90;;;;;;4991668;28;20172;-72
2021/10/04 09:49:10;;;;;;;3.67;1.00;;;15.30;99.90;;;;;;4991272;28;20259;-72
2021/10/04 09:51:36;;;;;;;3.23;0.83;;;15.40;99.90;;;;;;4975391;28;20275;-74
2021/10/04 09:54:11;;;;;;;2.40;0.90;;;15.50;99.90;;;;;;4989177;28;20283;-72
2021/10/04 09:56:39;;;;;;;1.90;1.10;;;15.50;99.90;;;;;;5007913;28;20200;-73
2021/10/04 09:59:10;;;;;;;4.87;1.07;;;15.50;99.90;;;;;;4991196;28;20208;-72
2021/10/04 10:01:36;;;;;;;3.53;1.00;;;15.40;99.90;;;;;;5007249;28;20183;-72
2021/10/04 10:04:01;;;;;;;3.30;0.73;;;15.40;99.90;;;;;;4991219;28;20246;-72
2021/10/04 10:06:27;;;;;;;2.93;0.90;;;15.40;99.90;;;;;;5007661;28;20258;-71
2021/10/04 10:08:53;;;;;;;3.70;0.90;;;15.50;99.90;;;;;;4990991;28;20190;-72
2021/10/04 10:11:21;;;;;;;3.00;1.00;;;15.50;99.90;;;;;;5007754;28;20230;-73
2021/10/04 10:13:48;;;;;;;3.97;0.70;;;15.50;99.90;;;;;;5007214;28;20197;-73
2021/10/04 10:16:20;;;;;;;3.17;1.10;;;15.70;99.90;;;;;;4991291;28;20188;-74
2021/10/04 10:18:52;;;;;;;3.57;0.87;;;16.00;99.90;;;;;;4991290;28;20176;-75
2021/10/04 10:21:22;;;;;;;5.20;1.00;;;16.10;99.90;;;;;;4989901;28;20176;-76
2021/10/04 10:23:48;;;;;;;3.63;0.80;;;16.10;99.90;;;;;;4968257;28;20218;-81
2021/10/04 10:26:42;;;;;;;2.10;0.70;;;16.20;99.90;;;;;;5004686;28;20181;-76
2021/10/04 10:29:17;;;;;;;2.93;0.90;;;16.50;99.90;;;;;;4991265;28;20701;-76
2021/10/04 10:31:51;;;;;;;2.83;0.70;;;16.60;99.90;;;;;;5007721;28;20180;-77
2021/10/04 10:34:29;;;;;;;3.63;0.93;;;16.60;99.90;;;;;;5007579;28;20202;-76
2021/10/04 10:37:07;;;;;;;2.97;0.90;;;16.40;99.90;;;;;;4992514;28;20196;-74
2021/10/04 10:39:46;;;;;;;2.00;0.70;;;16.20;99.90;;;;;;4991142;28;20180;-74
2021/10/04 10:42:13;;;;;;;3.77;0.93;;;16.10;99.90;;;;;;4991231;28;20196;-75
2021/10/04 10:45:09;;;;;;;3.67;0.80;;;16.20;99.90;;;;;;4992312;28;20318;-77
2021/10/04 10:47:37;;;;;;;3.33;0.70;;;16.20;99.90;;;;;;4991242;28;20164;-74
2021/10/04 10:50:15;;;;;;;2.17;0.70;;;16.20;99.90;;;;;;4992196;28;20259;-75
2021/10/04 10:52:56;;;;;;;3.30;0.80;;;16.20;99.90;;;;;;4991036;28;20188;-75
2021/10/04 10:55:21;;;;;;;1.63;0.80;;;16.20;99.90;;;;;;4992437;28;20276;-75
2021/10/04 10:57:56;;;;;;;1.73;1.03;;;16.50;99.90;;;;;;4982115;28;20266;-75
2021/10/04 11:00:23;;;;;;;2.33;0.80;;;16.70;99.90;;;;;;4980570;28;20176;-74
2021/10/04 11:03:15;;;;;;;2.67;0.80;;;16.90;99.90;;;;;;4973993;28;20208;-73
2021/10/04 11:05:41;;;;;;;2.70;0.90;;;17.00;99.90;;;;;;5004536;28;20204;-74
2021/10/04 11:08:14;;;;;;;4.00;0.80;;;17.10;99.90;;;;;;5013359;28;20172;-73
2021/10/04 11:10:49;;;;;;;4.07;0.80;;;17.10;99.90;;;;;;5001762;28;20207;-74
2021/10/04 11:13:34;;;;;;;4.83;0.93;;;17.00;99.90;;;;;;5004280;28;20270;-74
2021/10/04 11:16:21;;;;;;;4.23;1.20;;;17.00;99.90;;;;;;5011577;28;20180;-74
2021/10/04 11:18:47;;;;;;;3.77;0.90;;;17.00;99.90;;;;;;4991665;28;20199;-74
2021/10/04 11:21:18;;;;;;;2.70;0.73;;;17.00;99.90;;;;;;5003363;28;20184;-74
2021/10/04 11:23:45;;;;;;;2.67;0.67;;;17.00;99.90;;;;;;5008426;28;20265;-74
2021/10/04 11:26:14;;;;;;;5.97;1.00;;;17.10;99.90;;;;;;4997405;28;20191;-74
2021/10/04 11:28:42;;;;;;;3.80;0.90;;;17.10;99.90;;;;;;5007071;28;20184;-73
2021/10/04 11:31:09;;;;;;;3.00;0.80;;;17.10;99.90;;;;;;4993944;28;20187;-75
2021/10/04 11:33:45;;;;;;;2.03;0.80;;;17.20;99.90;;;;;;4977711;28;20200;-75
2021/10/04 11:36:11;;;;;;;2.43;0.67;;;17.20;99.90;;;;;;4999460;28;20180;-75
2021/10/04 11:38:54;;;;;;;3.83;1.20;;;17.20;99.90;;;;;;4977675;28;20690;-75
2021/10/04 11:41:41;;;;;;;4.03;0.80;;;17.20;99.90;;;;;;4977255;28;20275;-75
2021/10/04 11:44:09;;;;;;;4.30;0.80;;;17.20;99.90;;;;;;4979645;28;20212;-75
2021/10/04 11:46:44;;;;;;;4.57;0.67;;;17.20;99.90;;;;;;5005764;28;20188;-75
2021/10/04 11:49:14;;;;;;;3.50;0.80;;;17.30;99.90;;;;;;4991031;28;20175;-75
2021/10/04 11:51:46;;;;;;;1.63;0.60;;;17.30;99.90;;;;;;4993746;28;20176;-76
2021/10/04 11:54:33;;;;;;;3.67;0.70;;;17.40;99.90;;;;;;4994344;28;20215;-75
2021/10/04 11:56:58;;;;;;;4.13;0.77;;;17.50;99.90;;;;;;4982736;28;20655;-76
2021/10/04 11:59:24;;;;;;;3.80;0.80;;;17.70;99.90;;;;;;4993344;28;20191;-75
2021/10/04 12:01:49;;;;;;;2.40;0.60;;;17.70;99.90;;;;;;4993424;28;20214;-74
2021/10/04 12:04:15;;;;;;;2.77;0.50;;;17.80;99.90;;;;;;4993598;28;20548;-75
2021/10/04 12:06:42;;;;;;;3.47;0.73;;;17.60;99.90;;;;;;4997658;28;20188;-75
2021/10/04 12:09:13;;;;;;;2.97;0.80;;;17.50;99.90;;;;;;4985955;28;20176;-75
2021/10/04 12:11:54;;;;;;;3.63;0.70;;;17.50;99.90;;;;;;4976919;28;20263;-74
2021/10/04 12:14:21;;;;;;;2.97;0.60;;;17.60;99.90;;;;;;4999742;28;20165;-75
2021/10/04 12:16:47;;;;;;;3.63;0.70;;;17.70;99.90;;;;;;4986217;28;20200;-77
2021/10/04 12:19:12;;;;;;;2.83;0.70;;;17.70;99.90;;;;;;4975708;28;20181;-75
2021/10/04 12:21:46;;;;;;;5.50;0.73;;;17.70;99.90;;;;;;4976807;28;20180;-75
2021/10/04 12:24:17;;;;;;;3.13;0.60;;;17.70;99.90;;;;;;4995224;28;20219;-76
2021/10/04 12:26:56;;;;;;;3.27;0.70;;;17.60;99.90;;;;;;4997220;28;20187;-75
2021/10/04 12:29:32;;;;;;;4.00;0.77;;;17.60;99.90;;;;;;5014760;28;20173;-75
2021/10/04 12:31:58;;;;;;;4.37;0.80;;;17.50;99.90;;;;;;5022640;28;20167;-76
2021/10/04 12:34:26;;;;;;;5.23;1.00;;;17.60;99.90;;;;;;4989983;28;20628;-75
2021/10/04 12:36:53;;;;;;;3.00;0.70;;;17.60;99.90;;;;;;4974634;28;20188;-74
2021/10/04 12:39:19;;;;;;;3.13;0.70;;;17.70;99.90;;;;;;4973685;28;20192;-74
2021/10/04 12:41:46;;;;;;;3.03;0.80;;;17.80;99.90;;;;;;4973600;28;20188;-73
2021/10/04 12:44:17;;;;;;;4.53;0.90;;;17.80;99.90;;;;;;4997422;28;20243;-73
2021/10/04 12:47:08;;;;;;;2.87;0.70;;;17.80;99.90;;;;;;4996447;28;20183;-73
2021/10/04 12:49:34;;;;;;;1.57;0.60;;;17.80;99.90;;;;;;5016042;28;20183;-73